Weather at Myakka Head Airport

Public forecast

Using degrees Fahrenheit for public forecast. Weather courtesy of forecast.io.

Closest aviation weather report (METAR) to Myakka Head Airport

Closest report is Sarasota Bradenton International Airport, 24.2 nm (44.9 km) W. Retrieved 2021/01/15 21:53 UTC (38 minutes ago):

KSRQ 152153Z 18014KT 10SM SCT047 19/15 A2980 RMK AO2 SLP090 T01940150

Closest aviation forecast (TAF) to Myakka Head Airport

Closest forecast is Sarasota Bradenton International Airport, 24.2 nm (44.9 km) W. Retrieved 2021/01/15 18:51 UTC (4 hours ago):

TAF KSRQ 151747Z 1518/1618 19014G22KT P6SM FEW035 SCT100 FM152200 24012G20KT P6SM -SHRA BKN040 OVC080 FM160200 29010KT P6SM SCT020 SCT040 BKN250 FM161100 29012KT P6SM BKN040 FM161400 30015G22KT P6SM BKN040